This is the latest recevied weather packets stored in our database for station/object N1SU-13. If no packets are shown the sender has not sent any weather packets the latest 10 day(s).
| Time | Temp. | Humidity | Pressure | Rain* | Wind** | Luminosity | Snow |
|---|---|---|---|---|---|---|---|
| 1788139912 | 69° F | 51% | 762.2 mmHg | - | - | - | - |
| 1788139282 | 69° F | 52% | 762.2 mmHg | - | - | - | - |
| 1788138682 | 70° F | 49% | 762.2 mmHg | - | - | - | - |
| 1788138059 | 70° F | 49% | 762.3 mmHg | - | - | - | - |
| 1788137442 | 71° F | 49% | 762.3 mmHg | - | - | - | - |
| 1788136770 | 71° F | 49% | 762.3 mmHg | - | - | - | - |
| 1788136201 | 70° F | 49% | 762.4 mmHg | - | - | - | - |
| 1788135592 | 69° F | 50% | 762.4 mmHg | - | - | - | - |
| 1788135002 | 69° F | 50% | 762.4 mmHg | - | - | - | - |
| 1788134362 | 69° F | 51% | 762.6 mmHg | - | - | - | - |
| 1788133681 | 70° F | 51% | 762.6 mmHg | - | - | - | - |
| 1788133066 | 70° F | 50% | 762.6 mmHg | - | - | - | - |
| 1788132426 | 70° F | 49% | 762.6 mmHg | - | - | - | - |
| 1788131745 | 70° F | 50% | 762.6 mmHg | - | - | - | - |
| 1788131150 | 70° F | 50% | 762.7 mmHg | - | - | - | - |
| 1788130533 | 69° F | 51% | 762.9 mmHg | - | - | - | - |
| 1788129834 | 69° F | 51% | 763 mmHg | - | - | - | - |
| 1788129211 | 68° F | 52% | 763 mmHg | - | - | - | - |
| 1788128601 | 68° F | 51% | 763.1 mmHg | - | - | - | - |
| 1788127975 | 69° F | 52% | 763 mmHg | - | - | - | - |
| 1788127394 | 68° F | 55% | 763.1 mmHg | - | - | - | - |
| 1788126778 | 66° F | 56% | 763.3 mmHg | - | - | - | - |
| 1788126118 | 66° F | 56% | 763.4 mmHg | - | - | - | - |
| 1788125950 | 58° F | 73% | 763.6 mmHg | - | - | - | - |
| 1788125461 | 65° F | 57% | 763.5 mmHg | - | - | - | - |
* Rain since midnight (hover to see other rain measurements)
** Current wind speed in m/s (hover to see current wind gust speed)